createdAt,value
2022-12-15T00:04:23.772Z,78.03
2022-12-15T00:10:14.017Z,76.38
2022-12-15T00:16:07.190Z,76.03
2022-12-15T00:21:57.224Z,73.97
2022-12-15T00:27:47.035Z,70.15
2022-12-15T00:33:37.057Z,72.68
2022-12-15T00:39:08.478Z,62.78
2022-12-15T00:44:39.386Z,69.18
2022-12-15T00:50:29.288Z,76.78
2022-12-15T00:56:19.373Z,60.13
2022-12-15T01:02:09.552Z,66.20
2022-12-15T01:08:00.313Z,57.03
2022-12-15T01:13:50.212Z,62.10
2022-12-15T01:19:39.953Z,57.30
2022-12-15T01:25:11.481Z,60.47
2022-12-15T01:30:42.627Z,55.72
2022-12-15T01:36:14.674Z,62.55
2022-12-15T01:41:46.218Z,56.53
2022-12-15T01:47:17.765Z,63.95
2022-12-15T01:52:49.660Z,50.55
2022-12-15T01:58:22.000Z,53.67
2022-12-15T02:03:53.291Z,52.40
2022-12-15T02:09:25.990Z,53.22
2022-12-15T02:15:09.640Z,52.08
2022-12-15T02:20:53.771Z,50.90
2022-12-15T02:26:36.872Z,49.83
2022-12-15T02:32:13.718Z,50.85
2022-12-15T02:37:45.412Z,50.42
2022-12-15T02:43:21.124Z,50.00
2022-12-15T02:48:57.708Z,49.42
2022-12-15T02:54:28.637Z,51.97
2022-12-15T03:00:06.110Z,46.92
2022-12-15T03:05:37.581Z,50.25
2022-12-15T03:11:08.554Z,43.60
2022-12-15T03:16:39.624Z,47.00
2022-12-15T03:22:11.253Z,43.90
2022-12-15T03:27:42.192Z,48.33
2022-12-15T03:33:13.179Z,49.22
2022-12-15T03:38:44.619Z,45.83
2022-12-15T03:44:15.997Z,43.65
2022-12-15T03:49:46.963Z,46.08
2022-12-15T03:55:19.013Z,45.67
2022-12-15T04:00:50.058Z,47.80
2022-12-15T04:06:21.340Z,44.63
2022-12-15T04:11:52.766Z,42.50
2022-12-15T04:17:24.026Z,44.28
2022-12-15T04:22:55.375Z,41.45
2022-12-15T04:28:44.851Z,47.10
2022-12-15T04:34:43.844Z,41.53
2022-12-15T04:40:33.930Z,42.28
2022-12-15T04:46:24.029Z,37.00
2022-12-15T04:52:13.751Z,41.85
2022-12-15T04:58:03.711Z,42.70
2022-12-15T05:03:53.977Z,37.65
2022-12-15T05:09:44.001Z,36.33
2022-12-15T05:15:34.037Z,43.90
2022-12-15T05:21:24.776Z,39.80
2022-12-15T05:27:14.502Z,38.95
2022-12-15T05:32:45.666Z,40.45
2022-12-15T05:38:21.100Z,37.10
2022-12-15T05:43:52.175Z,36.58
2022-12-15T05:49:25.998Z,38.92
2022-12-15T05:54:57.268Z,39.65
2022-12-15T06:00:28.274Z,37.83
2022-12-15T06:06:00.671Z,38.53
2022-12-15T06:11:31.874Z,38.20
2022-12-15T06:17:02.891Z,41.47
2022-12-15T06:22:33.996Z,39.25
2022-12-15T06:28:05.361Z,39.28
2022-12-15T06:33:37.560Z,39.08
2022-12-15T06:39:12.793Z,36.30
2022-12-15T06:44:44.189Z,38.55
2022-12-15T06:50:15.580Z,37.10
2022-12-15T06:55:47.919Z,36.45
2022-12-15T07:01:22.867Z,39.10
2022-12-15T07:06:54.142Z,34.28
2022-12-15T07:12:25.181Z,36.97
2022-12-15T07:17:56.905Z,34.97
2022-12-15T07:23:46.266Z,32.85
2022-12-15T07:29:23.514Z,34.72
2022-12-15T07:34:55.030Z,40.17
2022-12-15T07:40:26.384Z,34.33
2022-12-15T07:45:57.497Z,35.50
2022-12-15T07:51:29.231Z,33.75
2022-12-15T07:57:00.611Z,35.17
2022-12-15T08:02:32.231Z,33.17
2022-12-15T08:08:03.842Z,34.88
2022-12-15T08:14:01.954Z,36.95
2022-12-15T08:19:26.899Z,38.10
2022-12-15T08:24:57.830Z,31.25
2022-12-15T08:30:29.535Z,36.45
2022-12-15T08:36:03.204Z,36.75
2022-12-15T08:41:34.346Z,33.22
2022-12-15T08:47:05.506Z,37.83
2022-12-15T08:52:55.251Z,32.15
2022-12-15T08:58:33.548Z,36.10
2022-12-15T09:04:04.772Z,39.25
2022-12-15T09:09:35.971Z,37.83
2022-12-15T09:15:07.312Z,38.65
2022-12-15T09:20:39.284Z,34.08
2022-12-15T09:26:12.997Z,36.65
2022-12-15T09:31:44.902Z,35.78
2022-12-15T09:37:16.080Z,33.95
2022-12-15T09:43:04.936Z,36.53
2022-12-15T09:48:44.327Z,35.00
2022-12-15T09:54:15.450Z,37.70
2022-12-15T10:00:07.806Z,34.47
2022-12-15T10:06:18.113Z,32.03
2022-12-15T10:12:11.135Z,37.72
2022-12-15T10:18:01.617Z,32.33
2022-12-15T10:23:34.800Z,36.53
2022-12-15T10:34:41.584Z,34.85
2022-12-15T10:40:21.232Z,32.53
2022-12-15T10:46:25.668Z,34.45
2022-12-15T10:51:59.935Z,34.35
2022-12-15T10:57:35.802Z,32.10
2022-12-15T11:03:22.475Z,32.53
2022-12-15T11:08:56.758Z,38.15
2022-12-15T11:14:42.388Z,33.45
2022-12-15T11:20:22.663Z,34.45
2022-12-15T11:26:35.945Z,33.60
2022-12-15T11:32:11.354Z,34.22
2022-12-15T11:37:44.376Z,35.40
2022-12-15T11:43:18.717Z,37.15
2022-12-15T11:48:52.941Z,35.50
2022-12-15T11:54:30.054Z,33.88
2022-12-15T12:00:14.137Z,36.70
2022-12-15T12:06:14.861Z,34.28
2022-12-15T12:11:55.916Z,38.78
2022-12-15T12:17:53.030Z,37.55
2022-12-15T12:23:58.726Z,32.28
2022-12-15T12:35:30.598Z,29.58
2022-12-15T12:41:28.346Z,37.13
2022-12-15T12:47:25.290Z,36.08
2022-12-15T12:53:01.630Z,34.67
2022-12-15T12:58:32.916Z,35.10
2022-12-15T13:04:34.217Z,38.17
2022-12-15T13:10:08.583Z,36.05
2022-12-15T13:15:43.733Z,37.58
2022-12-15T13:21:43.542Z,33.97
2022-12-15T13:27:15.492Z,36.65
2022-12-15T13:32:47.970Z,32.67
2022-12-15T13:38:51.945Z,37.42
2022-12-15T13:44:24.031Z,37.55
2022-12-15T13:50:15.276Z,35.25
2022-12-15T13:55:55.246Z,35.97
2022-12-15T14:01:32.226Z,32.22
2022-12-15T14:07:06.690Z,35.60
2022-12-15T14:12:39.853Z,39.57
2022-12-15T14:18:22.501Z,37.72
2022-12-15T14:24:36.565Z,36.22
2022-12-15T14:29:46.699Z,36.85
2022-12-15T14:35:29.190Z,36.03
2022-12-15T14:41:02.640Z,35.95
2022-12-15T14:46:33.758Z,38.07
2022-12-15T14:52:06.419Z,38.22
2022-12-15T14:57:43.919Z,37.83
2022-12-15T15:03:19.686Z,38.22
2022-12-15T15:08:53.244Z,40.72
2022-12-15T15:14:27.658Z,37.15
2022-12-15T15:20:06.356Z,37.50
2022-12-15T15:25:41.424Z,35.30
2022-12-15T15:31:25.170Z,36.97
2022-12-15T15:36:56.814Z,41.07
2022-12-15T15:42:32.521Z,38.88
2022-12-15T15:48:04.324Z,38.55
2022-12-15T15:53:36.106Z,38.22
2022-12-15T15:59:12.913Z,37.05
2022-12-15T16:04:44.764Z,37.13
2022-12-15T16:10:18.469Z,37.42
2022-12-15T16:15:50.015Z,37.67
2022-12-15T16:21:27.242Z,36.88
2022-12-15T16:26:59.201Z,36.10
2022-12-15T16:32:30.312Z,41.45
2022-12-15T16:38:05.395Z,39.85
2022-12-15T16:43:40.393Z,39.92
2022-12-15T16:49:15.915Z,42.58
2022-12-15T16:54:48.656Z,40.03
2022-12-15T17:00:23.349Z,42.63
2022-12-15T17:06:05.626Z,41.83
2022-12-15T17:11:36.582Z,46.08
2022-12-15T17:17:18.889Z,42.97
2022-12-15T17:22:52.805Z,40.70
2022-12-15T17:28:27.941Z,46.40
2022-12-15T17:33:59.843Z,45.60
2022-12-15T17:39:32.079Z,45.08
2022-12-15T17:45:16.274Z,43.88
2022-12-15T17:50:50.212Z,41.38
2022-12-15T17:56:26.308Z,43.42
2022-12-15T18:01:57.706Z,43.38
2022-12-15T18:07:29.025Z,44.80
2022-12-15T18:13:00.597Z,45.00
2022-12-15T18:18:32.130Z,46.42
2022-12-15T18:24:03.874Z,47.17
2022-12-15T18:29:35.125Z,44.85
2022-12-15T18:35:18.422Z,43.85
2022-12-15T18:40:51.848Z,47.80
2022-12-15T18:46:22.960Z,48.47
2022-12-15T18:51:54.443Z,46.22
2022-12-15T18:57:33.582Z,45.38
2022-12-15T19:03:04.921Z,44.33
2022-12-15T19:08:39.012Z,42.97
2022-12-15T19:14:36.769Z,49.95
2022-12-15T19:20:38.384Z,46.22
2022-12-15T19:26:12.948Z,45.67
2022-12-15T19:31:45.181Z,44.28
2022-12-15T19:37:35.224Z,47.63
2022-12-15T19:43:06.355Z,45.90
2022-12-15T19:48:37.577Z,41.03
2022-12-15T19:54:20.364Z,48.55
2022-12-15T19:59:51.491Z,45.45
2022-12-15T20:05:24.614Z,55.33
2022-12-15T20:10:56.822Z,52.03
2022-12-15T20:16:28.131Z,46.95
2022-12-15T20:22:02.371Z,47.13
2022-12-15T20:27:33.544Z,46.03
2022-12-15T20:33:05.465Z,54.13
2022-12-15T20:38:36.758Z,49.70
2022-12-15T20:44:12.903Z,55.40
2022-12-15T20:49:45.122Z,49.97
2022-12-15T20:55:16.715Z,51.30
2022-12-15T21:00:48.732Z,54.65
2022-12-15T21:06:19.963Z,60.75
2022-12-15T21:11:55.250Z,54.67
2022-12-15T21:17:26.810Z,54.78
2022-12-15T21:22:58.053Z,51.78
2022-12-15T21:28:29.346Z,54.85
2022-12-15T21:34:00.934Z,54.33
2022-12-15T21:39:36.238Z,115.90
2022-12-15T21:45:15.726Z,145.07
2022-12-15T21:50:48.375Z,172.00
2022-12-15T21:56:21.033Z,165.98
2022-12-15T22:01:52.392Z,176.95
2022-12-15T22:07:24.245Z,168.25
2022-12-15T22:12:59.585Z,160.02
2022-12-15T22:18:31.612Z,155.48
2022-12-15T22:24:03.005Z,153.10
2022-12-15T22:29:34.509Z,151.80
2022-12-15T22:35:22.470Z,141.85
2022-12-15T22:40:56.505Z,134.75
2022-12-15T22:46:27.867Z,140.57
2022-12-15T22:51:59.370Z,131.95
2022-12-15T22:57:30.319Z,131.52
2022-12-15T23:03:02.466Z,126.25
2022-12-15T23:08:34.096Z,132.77
2022-12-15T23:14:12.284Z,113.65
2022-12-15T23:19:46.861Z,125.20
2022-12-15T23:25:18.513Z,120.18
2022-12-15T23:30:51.834Z,106.05
2022-12-15T23:36:22.994Z,122.13
2022-12-15T23:41:54.312Z,108.22
2022-12-15T23:47:25.756Z,104.68
2022-12-15T23:52:56.922Z,102.22
2022-12-15T23:58:28.280Z,101.25
